sensor_id;sensor_type;location;lat;lon;timestamp;P1;durP1;ratioP1;P2;durP2;ratioP2
41099;SDS011;26844;53.686;-6.346;2022-11-15T00:01:34;80.55;;;76.55;;
41099;SDS011;26844;53.686;-6.346;2022-11-15T00:03:59;74.70;;;71.30;;
41099;SDS011;26844;53.686;-6.346;2022-11-15T00:06:24;81.10;;;77.32;;
41099;SDS011;26844;53.686;-6.346;2022-11-15T00:08:50;103.82;;;99.10;;
41099;SDS011;26844;53.686;-6.346;2022-11-15T00:11:15;115.20;;;110.10;;
41099;SDS011;26844;53.686;-6.346;2022-11-15T00:13:40;115.05;;;109.60;;
41099;SDS011;26844;53.686;-6.346;2022-11-15T00:16:05;143.15;;;136.77;;
41099;SDS011;26844;53.686;-6.346;2022-11-15T00:18:31;151.07;;;144.25;;
41099;SDS011;26844;53.686;-6.346;2022-11-15T00:21:02;98.18;;;93.72;;
41099;SDS011;26844;53.686;-6.346;2022-11-15T00:23:27;120.93;;;115.38;;
41099;SDS011;26844;53.686;-6.346;2022-11-15T00:25:56;105.13;;;100.28;;
41099;SDS011;26844;53.686;-6.346;2022-11-15T00:28:22;103.85;;;99.15;;
41099;SDS011;26844;53.686;-6.346;2022-11-15T00:30:47;132.00;;;126.03;;
41099;SDS011;26844;53.686;-6.346;2022-11-15T00:33:13;133.50;;;127.53;;
41099;SDS011;26844;53.686;-6.346;2022-11-15T00:35:38;97.85;;;93.53;;
41099;SDS011;26844;53.686;-6.346;2022-11-15T00:38:03;93.40;;;89.13;;
41099;SDS011;26844;53.686;-6.346;2022-11-15T00:40:28;79.57;;;75.70;;
41099;SDS011;26844;53.686;-6.346;2022-11-15T00:42:54;68.53;;;65.13;;
41099;SDS011;26844;53.686;-6.346;2022-11-15T00:45:19;62.05;;;59.17;;
41099;SDS011;26844;53.686;-6.346;2022-11-15T00:47:44;57.97;;;55.42;;
41099;SDS011;26844;53.686;-6.346;2022-11-15T00:50:10;43.97;;;42.08;;
41099;SDS011;26844;53.686;-6.346;2022-11-15T00:52:36;47.42;;;45.33;;
41099;SDS011;26844;53.686;-6.346;2022-11-15T00:55:01;35.90;;;34.22;;
41099;SDS011;26844;53.686;-6.346;2022-11-15T00:57:26;37.78;;;35.92;;
41099;SDS011;26844;53.686;-6.346;2022-11-15T00:59:51;33.88;;;32.30;;
41099;SDS011;26844;53.686;-6.346;2022-11-15T01:02:17;36.38;;;34.75;;
41099;SDS011;26844;53.686;-6.346;2022-11-15T01:04:42;33.58;;;31.88;;
41099;SDS011;26844;53.686;-6.346;2022-11-15T01:07:07;33.35;;;31.88;;
41099;SDS011;26844;53.686;-6.346;2022-11-15T01:09:32;35.35;;;33.67;;
41099;SDS011;26844;53.686;-6.346;2022-11-15T01:11:58;30.70;;;29.15;;
41099;SDS011;26844;53.686;-6.346;2022-11-15T01:14:23;31.55;;;30.02;;
41099;SDS011;26844;53.686;-6.346;2022-11-15T01:16:48;33.25;;;31.58;;
41099;SDS011;26844;53.686;-6.346;2022-11-15T01:19:13;28.23;;;26.98;;
41099;SDS011;26844;53.686;-6.346;2022-11-15T01:21:39;28.95;;;27.35;;
41099;SDS011;26844;53.686;-6.346;2022-11-15T01:24:04;30.10;;;28.50;;
41099;SDS011;26844;53.686;-6.346;2022-11-15T01:26:29;31.58;;;30.05;;
41099;SDS011;26844;53.686;-6.346;2022-11-15T01:28:54;33.65;;;32.20;;
41099;SDS011;26844;53.686;-6.346;2022-11-15T01:31:20;29.55;;;28.15;;
41099;SDS011;26844;53.686;-6.346;2022-11-15T01:33:46;28.33;;;26.92;;
41099;SDS011;26844;53.686;-6.346;2022-11-15T01:36:16;31.23;;;29.73;;
41099;SDS011;26844;53.686;-6.346;2022-11-15T01:38:41;28.10;;;26.90;;
41099;SDS011;26844;53.686;-6.346;2022-11-15T01:41:13;30.88;;;29.38;;
41099;SDS011;26844;53.686;-6.346;2022-11-15T01:43:39;31.42;;;29.75;;
41099;SDS011;26844;53.686;-6.346;2022-11-15T01:46:23;26.38;;;25.17;;
41099;SDS011;26844;53.686;-6.346;2022-11-15T01:48:50;22.17;;;21.13;;
41099;SDS011;26844;53.686;-6.346;2022-11-15T01:51:16;19.73;;;18.80;;
41099;SDS011;26844;53.686;-6.346;2022-11-15T01:53:43;24.20;;;23.10;;
41099;SDS011;26844;53.686;-6.346;2022-11-15T01:56:10;22.45;;;21.48;;
41099;SDS011;26844;53.686;-6.346;2022-11-15T01:58:36;20.35;;;19.35;;
41099;SDS011;26844;53.686;-6.346;2022-11-15T02:01:02;19.13;;;18.20;;
41099;SDS011;26844;53.686;-6.346;2022-11-15T02:03:31;13.55;;;12.75;;
41099;SDS011;26844;53.686;-6.346;2022-11-15T02:05:59;33.15;;;31.33;;
41099;SDS011;26844;53.686;-6.346;2022-11-15T02:08:24;47.20;;;45.17;;
41099;SDS011;26844;53.686;-6.346;2022-11-15T02:10:49;112.18;;;107.10;;
41099;SDS011;26844;53.686;-6.346;2022-11-15T02:13:15;23.30;;;22.25;;
41099;SDS011;26844;53.686;-6.346;2022-11-15T02:15:44;39.00;;;37.30;;
41099;SDS011;26844;53.686;-6.346;2022-11-15T02:21:12;24.65;;;23.52;;
41099;SDS011;26844;53.686;-6.346;2022-11-15T02:23:56;13.02;;;12.52;;
41099;SDS011;26844;53.686;-6.346;2022-11-15T02:29:06;27.77;;;26.48;;
41099;SDS011;26844;53.686;-6.346;2022-11-15T02:31:51;20.60;;;19.60;;
41099;SDS011;26844;53.686;-6.346;2022-11-15T02:45:09;80.03;;;75.47;;
41099;SDS011;26844;53.686;-6.346;2022-11-15T02:47:39;154.25;;;144.38;;
41099;SDS011;26844;53.686;-6.346;2022-11-15T02:52:30;58.83;;;55.53;;
41099;SDS011;26844;53.686;-6.346;2022-11-15T02:54:56;46.90;;;44.58;;
41099;SDS011;26844;53.686;-6.346;2022-11-15T02:57:36;62.05;;;58.83;;
41099;SDS011;26844;53.686;-6.346;2022-11-15T03:12:40;45.50;;;43.25;;
41099;SDS011;26844;53.686;-6.346;2022-11-15T03:15:09;57.88;;;55.20;;
41099;SDS011;26844;53.686;-6.346;2022-11-15T03:17:58;85.40;;;81.43;;
41099;SDS011;26844;53.686;-6.346;2022-11-15T03:20:20;76.22;;;72.72;;
41099;SDS011;26844;53.686;-6.346;2022-11-15T03:22:46;45.15;;;42.88;;
41099;SDS011;26844;53.686;-6.346;2022-11-15T03:25:15;45.65;;;43.33;;
41099;SDS011;26844;53.686;-6.346;2022-11-15T03:27:43;69.28;;;66.18;;
41099;SDS011;26844;53.686;-6.346;2022-11-15T03:30:09;111.93;;;105.25;;
41099;SDS011;26844;53.686;-6.346;2022-11-15T03:32:39;43.10;;;40.33;;
41099;SDS011;26844;53.686;-6.346;2022-11-15T03:35:08;29.33;;;27.35;;
41099;SDS011;26844;53.686;-6.346;2022-11-15T03:37:42;36.10;;;34.05;;
41099;SDS011;26844;53.686;-6.346;2022-11-15T03:40:09;47.42;;;44.83;;
41099;SDS011;26844;53.686;-6.346;2022-11-15T03:42:56;31.35;;;29.77;;
41099;SDS011;26844;53.686;-6.346;2022-11-15T03:45:26;63.20;;;59.75;;
41099;SDS011;26844;53.686;-6.346;2022-11-15T03:48:05;118.88;;;112.85;;
41099;SDS011;26844;53.686;-6.346;2022-11-15T03:50:34;42.08;;;39.97;;
41099;SDS011;26844;53.686;-6.346;2022-11-15T03:52:59;83.85;;;79.60;;
41099;SDS011;26844;53.686;-6.346;2022-11-15T03:55:25;47.22;;;44.95;;
41099;SDS011;26844;53.686;-6.346;2022-11-15T03:57:51;64.45;;;61.10;;
41099;SDS011;26844;53.686;-6.346;2022-11-15T04:00:16;51.70;;;48.92;;
41099;SDS011;26844;53.686;-6.346;2022-11-15T04:02:45;45.45;;;43.17;;
41099;SDS011;26844;53.686;-6.346;2022-11-15T04:05:10;37.38;;;35.53;;
41099;SDS011;26844;53.686;-6.346;2022-11-15T04:07:35;36.38;;;34.58;;
41099;SDS011;26844;53.686;-6.346;2022-11-15T04:10:00;42.40;;;40.40;;
41099;SDS011;26844;53.686;-6.346;2022-11-15T04:12:32;63.35;;;60.42;;
41099;SDS011;26844;53.686;-6.346;2022-11-15T04:15:02;64.47;;;61.60;;
41099;SDS011;26844;53.686;-6.346;2022-11-15T04:17:37;81.90;;;77.68;;
41099;SDS011;26844;53.686;-6.346;2022-11-15T04:20:06;39.65;;;37.30;;
41099;SDS011;26844;53.686;-6.346;2022-11-15T04:22:54;98.80;;;93.95;;
41099;SDS011;26844;53.686;-6.346;2022-11-15T04:25:39;59.65;;;56.70;;
41099;SDS011;26844;53.686;-6.346;2022-11-15T04:28:04;63.78;;;60.70;;
41099;SDS011;26844;53.686;-6.346;2022-11-15T04:30:29;62.72;;;59.55;;
41099;SDS011;26844;53.686;-6.346;2022-11-15T04:32:54;54.95;;;52.10;;
41099;SDS011;26844;53.686;-6.346;2022-11-15T04:35:20;54.33;;;51.90;;
41099;SDS011;26844;53.686;-6.346;2022-11-15T04:37:45;58.67;;;55.83;;
41099;SDS011;26844;53.686;-6.346;2022-11-15T04:40:10;63.50;;;60.30;;
41099;SDS011;26844;53.686;-6.346;2022-11-15T04:42:35;60.60;;;57.88;;
41099;SDS011;26844;53.686;-6.346;2022-11-15T04:45:01;61.83;;;58.90;;
41099;SDS011;26844;53.686;-6.346;2022-11-15T04:47:26;85.63;;;81.60;;
41099;SDS011;26844;53.686;-6.346;2022-11-15T04:49:53;58.38;;;55.45;;
41099;SDS011;26844;53.686;-6.346;2022-11-15T04:52:18;64.50;;;61.42;;
41099;SDS011;26844;53.686;-6.346;2022-11-15T04:54:43;53.92;;;51.17;;
41099;SDS011;26844;53.686;-6.346;2022-11-15T04:57:08;41.47;;;39.47;;
41099;SDS011;26844;53.686;-6.346;2022-11-15T04:59:33;60.13;;;57.05;;
41099;SDS011;26844;53.686;-6.346;2022-11-15T05:01:59;71.90;;;68.47;;
41099;SDS011;26844;53.686;-6.346;2022-11-15T05:04:24;63.80;;;60.67;;
41099;SDS011;26844;53.686;-6.346;2022-11-15T05:06:50;92.18;;;87.57;;
41099;SDS011;26844;53.686;-6.346;2022-11-15T05:09:15;97.88;;;93.05;;
41099;SDS011;26844;53.686;-6.346;2022-11-15T05:11:41;58.00;;;55.08;;
41099;SDS011;26844;53.686;-6.346;2022-11-15T05:14:06;53.05;;;50.42;;
41099;SDS011;26844;53.686;-6.346;2022-11-15T05:16:31;91.38;;;87.28;;
41099;SDS011;26844;53.686;-6.346;2022-11-15T05:18:56;80.50;;;76.57;;
41099;SDS011;26844;53.686;-6.346;2022-11-15T05:21:22;55.10;;;52.25;;
41099;SDS011;26844;53.686;-6.346;2022-11-15T05:23:47;72.20;;;68.85;;
41099;SDS011;26844;53.686;-6.346;2022-11-15T05:26:13;66.00;;;62.55;;
41099;SDS011;26844;53.686;-6.346;2022-11-15T05:28:39;52.45;;;50.15;;
41099;SDS011;26844;53.686;-6.346;2022-11-15T05:31:06;44.72;;;42.17;;
41099;SDS011;26844;53.686;-6.346;2022-11-15T05:33:32;55.83;;;52.88;;
41099;SDS011;26844;53.686;-6.346;2022-11-15T05:36:00;78.28;;;74.57;;
41099;SDS011;26844;53.686;-6.346;2022-11-15T05:38:26;85.03;;;80.88;;
41099;SDS011;26844;53.686;-6.346;2022-11-15T05:40:51;76.88;;;73.30;;
41099;SDS011;26844;53.686;-6.346;2022-11-15T05:43:16;118.10;;;112.43;;
41099;SDS011;26844;53.686;-6.346;2022-11-15T05:45:42;104.13;;;99.38;;
41099;SDS011;26844;53.686;-6.346;2022-11-15T05:48:07;99.72;;;95.10;;
41099;SDS011;26844;53.686;-6.346;2022-11-15T05:50:33;89.93;;;85.78;;
41099;SDS011;26844;53.686;-6.346;2022-11-15T05:53:00;116.83;;;110.60;;
41099;SDS011;26844;53.686;-6.346;2022-11-15T05:55:26;85.80;;;81.57;;
41099;SDS011;26844;53.686;-6.346;2022-11-15T05:57:51;144.65;;;137.88;;
41099;SDS011;26844;53.686;-6.346;2022-11-15T06:00:17;133.23;;;126.63;;
41099;SDS011;26844;53.686;-6.346;2022-11-15T06:02:42;125.47;;;119.32;;
41099;SDS011;26844;53.686;-6.346;2022-11-15T06:05:07;118.28;;;112.45;;
41099;SDS011;26844;53.686;-6.346;2022-11-15T06:07:32;108.05;;;102.60;;
41099;SDS011;26844;53.686;-6.346;2022-11-15T06:09:58;102.45;;;97.75;;
41099;SDS011;26844;53.686;-6.346;2022-11-15T06:12:23;139.80;;;133.15;;
41099;SDS011;26844;53.686;-6.346;2022-11-15T06:14:48;148.63;;;141.27;;
41099;SDS011;26844;53.686;-6.346;2022-11-15T06:17:13;126.22;;;120.03;;
41099;SDS011;26844;53.686;-6.346;2022-11-15T06:19:39;129.57;;;123.75;;
41099;SDS011;26844;53.686;-6.346;2022-11-15T06:22:04;122.95;;;116.75;;
41099;SDS011;26844;53.686;-6.346;2022-11-15T06:24:29;85.38;;;81.18;;
41099;SDS011;26844;53.686;-6.346;2022-11-15T06:26:54;100.22;;;95.53;;
41099;SDS011;26844;53.686;-6.346;2022-11-15T06:29:20;89.63;;;85.32;;
41099;SDS011;26844;53.686;-6.346;2022-11-15T06:31:45;82.85;;;78.45;;
41099;SDS011;26844;53.686;-6.346;2022-11-15T06:34:10;86.15;;;82.35;;
41099;SDS011;26844;53.686;-6.346;2022-11-15T06:36:35;104.75;;;99.95;;
41099;SDS011;26844;53.686;-6.346;2022-11-15T06:39:02;110.95;;;105.90;;
41099;SDS011;26844;53.686;-6.346;2022-11-15T06:41:27;116.63;;;111.05;;
41099;SDS011;26844;53.686;-6.346;2022-11-15T06:43:52;125.97;;;120.30;;
41099;SDS011;26844;53.686;-6.346;2022-11-15T06:46:18;106.25;;;101.43;;
41099;SDS011;26844;53.686;-6.346;2022-11-15T06:48:43;121.65;;;115.70;;
41099;SDS011;26844;53.686;-6.346;2022-11-15T06:51:08;130.02;;;123.75;;
41099;SDS011;26844;53.686;-6.346;2022-11-15T06:53:34;93.97;;;89.25;;
41099;SDS011;26844;53.686;-6.346;2022-11-15T06:56:03;90.45;;;86.20;;
41099;SDS011;26844;53.686;-6.346;2022-11-15T06:58:28;105.13;;;100.13;;
41099;SDS011;26844;53.686;-6.346;2022-11-15T07:00:57;66.63;;;63.50;;
41099;SDS011;26844;53.686;-6.346;2022-11-15T07:03:22;65.38;;;61.90;;
41099;SDS011;26844;53.686;-6.346;2022-11-15T07:05:54;99.00;;;94.40;;
41099;SDS011;26844;53.686;-6.346;2022-11-15T07:08:21;56.42;;;53.58;;
41099;SDS011;26844;53.686;-6.346;2022-11-15T07:10:46;98.30;;;93.63;;
41099;SDS011;26844;53.686;-6.346;2022-11-15T07:13:11;95.90;;;91.50;;
41099;SDS011;26844;53.686;-6.346;2022-11-15T07:15:36;85.13;;;80.75;;
41099;SDS011;26844;53.686;-6.346;2022-11-15T07:18:02;100.20;;;95.38;;
41099;SDS011;26844;53.686;-6.346;2022-11-15T07:20:27;88.43;;;84.60;;
41099;SDS011;26844;53.686;-6.346;2022-11-15T07:22:58;98.60;;;94.18;;
41099;SDS011;26844;53.686;-6.346;2022-11-15T07:25:24;84.40;;;80.15;;
41099;SDS011;26844;53.686;-6.346;2022-11-15T07:27:56;97.28;;;92.95;;
41099;SDS011;26844;53.686;-6.346;2022-11-15T07:30:21;94.93;;;90.32;;
41099;SDS011;26844;53.686;-6.346;2022-11-15T07:32:47;111.80;;;106.68;;
41099;SDS011;26844;53.686;-6.346;2022-11-15T07:35:12;91.07;;;86.38;;
41099;SDS011;26844;53.686;-6.346;2022-11-15T07:37:37;71.03;;;67.95;;
41099;SDS011;26844;53.686;-6.346;2022-11-15T07:40:02;86.20;;;82.15;;
41099;SDS011;26844;53.686;-6.346;2022-11-15T07:42:30;67.07;;;63.92;;
41099;SDS011;26844;53.686;-6.346;2022-11-15T07:45:22;81.57;;;77.95;;
41099;SDS011;26844;53.686;-6.346;2022-11-15T07:47:48;79.93;;;76.07;;
41099;SDS011;26844;53.686;-6.346;2022-11-15T07:50:14;67.57;;;64.22;;
41099;SDS011;26844;53.686;-6.346;2022-11-15T07:52:39;84.45;;;80.30;;
41099;SDS011;26844;53.686;-6.346;2022-11-15T07:55:04;126.38;;;120.45;;
41099;SDS011;26844;53.686;-6.346;2022-11-15T07:57:30;117.30;;;111.78;;
41099;SDS011;26844;53.686;-6.346;2022-11-15T07:59:55;127.43;;;121.65;;
41099;SDS011;26844;53.686;-6.346;2022-11-15T08:02:20;121.97;;;115.53;;
41099;SDS011;26844;53.686;-6.346;2022-11-15T08:04:45;110.82;;;105.35;;
41099;SDS011;26844;53.686;-6.346;2022-11-15T08:07:11;109.80;;;103.78;;
41099;SDS011;26844;53.686;-6.346;2022-11-15T08:09:36;112.25;;;106.65;;
41099;SDS011;26844;53.686;-6.346;2022-11-15T08:12:01;90.45;;;86.38;;
41099;SDS011;26844;53.686;-6.346;2022-11-15T08:14:26;101.35;;;96.45;;
41099;SDS011;26844;53.686;-6.346;2022-11-15T08:16:51;108.70;;;103.88;;
41099;SDS011;26844;53.686;-6.346;2022-11-15T08:19:17;68.95;;;65.60;;
41099;SDS011;26844;53.686;-6.346;2022-11-15T08:21:42;76.03;;;71.47;;
41099;SDS011;26844;53.686;-6.346;2022-11-15T08:24:09;63.53;;;60.22;;
41099;SDS011;26844;53.686;-6.346;2022-11-15T08:26:34;59.75;;;56.28;;
41099;SDS011;26844;53.686;-6.346;2022-11-15T08:29:00;91.68;;;87.15;;
41099;SDS011;26844;53.686;-6.346;2022-11-15T08:31:25;62.55;;;59.85;;
41099;SDS011;26844;53.686;-6.346;2022-11-15T08:33:50;72.07;;;68.57;;
41099;SDS011;26844;53.686;-6.346;2022-11-15T08:36:16;74.93;;;71.18;;
41099;SDS011;26844;53.686;-6.346;2022-11-15T08:38:41;85.25;;;81.22;;
41099;SDS011;26844;53.686;-6.346;2022-11-15T08:41:09;53.25;;;50.58;;
41099;SDS011;26844;53.686;-6.346;2022-11-15T08:43:35;57.67;;;55.10;;
41099;SDS011;26844;53.686;-6.346;2022-11-15T08:46:00;65.35;;;62.30;;
41099;SDS011;26844;53.686;-6.346;2022-11-15T08:48:26;49.53;;;47.10;;
41099;SDS011;26844;53.686;-6.346;2022-11-15T08:50:54;29.08;;;27.10;;
41099;SDS011;26844;53.686;-6.346;2022-11-15T08:53:20;21.85;;;18.85;;
41099;SDS011;26844;53.686;-6.346;2022-11-15T08:55:45;18.23;;;17.20;;
41099;SDS011;26844;53.686;-6.346;2022-11-15T08:58:11;17.42;;;15.68;;
41099;SDS011;26844;53.686;-6.346;2022-11-15T09:00:36;14.23;;;12.85;;
41099;SDS011;26844;53.686;-6.346;2022-11-15T09:03:05;17.02;;;15.57;;
41099;SDS011;26844;53.686;-6.346;2022-11-15T09:05:30;16.40;;;15.60;;
41099;SDS011;26844;53.686;-6.346;2022-11-15T09:07:56;18.92;;;17.92;;
41099;SDS011;26844;53.686;-6.346;2022-11-15T09:10:21;25.55;;;23.40;;
41099;SDS011;26844;53.686;-6.346;2022-11-15T09:12:47;28.23;;;26.77;;
41099;SDS011;26844;53.686;-6.346;2022-11-15T09:15:15;20.67;;;19.52;;
41099;SDS011;26844;53.686;-6.346;2022-11-15T09:17:41;32.58;;;29.77;;
41099;SDS011;26844;53.686;-6.346;2022-11-15T09:20:06;34.55;;;32.92;;
41099;SDS011;26844;53.686;-6.346;2022-11-15T09:22:31;48.13;;;45.58;;
41099;SDS011;26844;53.686;-6.346;2022-11-15T09:24:57;54.67;;;51.53;;
41099;SDS011;26844;53.686;-6.346;2022-11-15T09:27:22;64.22;;;61.38;;
41099;SDS011;26844;53.686;-6.346;2022-11-15T09:29:47;71.78;;;68.03;;
41099;SDS011;26844;53.686;-6.346;2022-11-15T09:32:12;58.47;;;55.72;;
41099;SDS011;26844;53.686;-6.346;2022-11-15T09:34:38;28.98;;;27.17;;
41099;SDS011;26844;53.686;-6.346;2022-11-15T09:37:03;46.88;;;44.38;;
41099;SDS011;26844;53.686;-6.346;2022-11-15T09:39:28;20.13;;;18.85;;
41099;SDS011;26844;53.686;-6.346;2022-11-15T09:49:22;70.55;;;67.03;;
41099;SDS011;26844;53.686;-6.346;2022-11-15T09:51:49;70.68;;;66.47;;
41099;SDS011;26844;53.686;-6.346;2022-11-15T09:57:37;92.72;;;88.63;;
41099;SDS011;26844;53.686;-6.346;2022-11-15T10:04:40;60.90;;;57.88;;
41099;SDS011;26844;53.686;-6.346;2022-11-15T10:09:42;57.85;;;55.13;;
41099;SDS011;26844;53.686;-6.346;2022-11-15T10:12:08;64.93;;;62.05;;
41099;SDS011;26844;53.686;-6.346;2022-11-15T10:14:34;48.78;;;46.53;;
41099;SDS011;26844;53.686;-6.346;2022-11-15T10:19:32;73.53;;;69.88;;
41099;SDS011;26844;53.686;-6.346;2022-11-15T10:24:25;84.20;;;80.10;;
41099;SDS011;26844;53.686;-6.346;2022-11-15T10:26:51;53.07;;;50.30;;
41099;SDS011;26844;53.686;-6.346;2022-11-15T10:29:19;70.05;;;66.90;;
41099;SDS011;26844;53.686;-6.346;2022-11-15T10:31:45;70.05;;;66.68;;
41099;SDS011;26844;53.686;-6.346;2022-11-15T10:34:14;65.47;;;62.67;;
41099;SDS011;26844;53.686;-6.346;2022-11-15T10:36:46;60.15;;;56.78;;
41099;SDS011;26844;53.686;-6.346;2022-11-15T10:39:18;77.85;;;74.03;;
41099;SDS011;26844;53.686;-6.346;2022-11-15T10:41:43;39.65;;;37.00;;
41099;SDS011;26844;53.686;-6.346;2022-11-15T10:44:19;45.33;;;43.35;;
41099;SDS011;26844;53.686;-6.346;2022-11-15T10:47:03;54.33;;;51.80;;
41099;SDS011;26844;53.686;-6.346;2022-11-15T10:49:30;49.25;;;46.85;;
41099;SDS011;26844;53.686;-6.346;2022-11-15T10:51:57;43.47;;;41.63;;
41099;SDS011;26844;53.686;-6.346;2022-11-15T10:56:51;49.63;;;47.13;;
41099;SDS011;26844;53.686;-6.346;2022-11-15T10:59:23;53.40;;;50.38;;
41099;SDS011;26844;53.686;-6.346;2022-11-15T11:01:49;52.88;;;49.63;;
41099;SDS011;26844;53.686;-6.346;2022-11-15T11:04:14;71.95;;;68.45;;
41099;SDS011;26844;53.686;-6.346;2022-11-15T11:07:19;74.72;;;70.95;;
41099;SDS011;26844;53.686;-6.346;2022-11-15T11:09:32;81.55;;;77.85;;
41099;SDS011;26844;53.686;-6.346;2022-11-15T11:11:57;49.67;;;47.00;;
41099;SDS011;26844;53.686;-6.346;2022-11-15T11:24:29;46.95;;;44.38;;
41099;SDS011;26844;53.686;-6.346;2022-11-15T11:32:40;111.95;;;106.88;;
41099;SDS011;26844;53.686;-6.346;2022-11-15T11:35:12;107.93;;;102.40;;
41099;SDS011;26844;53.686;-6.346;2022-11-15T11:37:51;86.82;;;82.20;;
41099;SDS011;26844;53.686;-6.346;2022-11-15T11:40:24;51.47;;;49.15;;
41099;SDS011;26844;53.686;-6.346;2022-11-15T11:50:36;66.70;;;63.17;;
41099;SDS011;26844;53.686;-6.346;2022-11-15T11:53:09;51.70;;;48.72;;
41099;SDS011;26844;53.686;-6.346;2022-11-15T11:55:46;42.95;;;40.85;;
41099;SDS011;26844;53.686;-6.346;2022-11-15T11:58:17;60.38;;;57.17;;
41099;SDS011;26844;53.686;-6.346;2022-11-15T12:01:29;96.22;;;91.85;;
41099;SDS011;26844;53.686;-6.346;2022-11-15T12:08:56;65.78;;;62.70;;
41099;SDS011;26844;53.686;-6.346;2022-11-15T12:11:25;41.42;;;39.40;;
41099;SDS011;26844;53.686;-6.346;2022-11-15T12:13:58;125.38;;;119.68;;
41099;SDS011;26844;53.686;-6.346;2022-11-15T12:16:28;65.90;;;62.65;;
41099;SDS011;26844;53.686;-6.346;2022-11-15T12:18:54;62.20;;;58.35;;
41099;SDS011;26844;53.686;-6.346;2022-11-15T12:21:26;80.80;;;76.45;;
41099;SDS011;26844;53.686;-6.346;2022-11-15T12:23:53;90.63;;;86.15;;
41099;SDS011;26844;53.686;-6.346;2022-11-15T12:26:21;52.85;;;49.50;;
41099;SDS011;26844;53.686;-6.346;2022-11-15T12:33:42;51.60;;;49.00;;
41099;SDS011;26844;53.686;-6.346;2022-11-15T12:36:09;51.72;;;49.03;;
41099;SDS011;26844;53.686;-6.346;2022-11-15T12:41:19;42.70;;;40.65;;
41099;SDS011;26844;53.686;-6.346;2022-11-15T12:43:46;29.85;;;28.15;;
41099;SDS011;26844;53.686;-6.346;2022-11-15T12:46:13;28.67;;;27.17;;
41099;SDS011;26844;53.686;-6.346;2022-11-15T12:51:03;24.40;;;22.85;;
41099;SDS011;26844;53.686;-6.346;2022-11-15T12:53:30;26.23;;;24.85;;
41099;SDS011;26844;53.686;-6.346;2022-11-15T13:01:06;24.73;;;22.90;;
41099;SDS011;26844;53.686;-6.346;2022-11-15T13:03:31;24.95;;;23.42;;
41099;SDS011;26844;53.686;-6.346;2022-11-15T13:05:58;23.98;;;22.77;;
41099;SDS011;26844;53.686;-6.346;2022-11-15T13:08:40;19.97;;;19.07;;
41099;SDS011;26844;53.686;-6.346;2022-11-15T13:13:49;34.08;;;32.40;;
41099;SDS011;26844;53.686;-6.346;2022-11-15T13:16:18;42.47;;;40.50;;
41099;SDS011;26844;53.686;-6.346;2022-11-15T13:18:45;49.15;;;46.53;;
41099;SDS011;26844;53.686;-6.346;2022-11-15T13:21:19;36.20;;;34.25;;
41099;SDS011;26844;53.686;-6.346;2022-11-15T13:24:03;50.17;;;47.55;;
41099;SDS011;26844;53.686;-6.346;2022-11-15T13:26:28;30.80;;;29.30;;
41099;SDS011;26844;53.686;-6.346;2022-11-15T13:28:53;25.63;;;24.20;;
41099;SDS011;26844;53.686;-6.346;2022-11-15T13:33:45;15.90;;;15.13;;
41099;SDS011;26844;53.686;-6.346;2022-11-15T13:38:39;14.75;;;13.80;;
41099;SDS011;26844;53.686;-6.346;2022-11-15T13:41:21;14.30;;;13.70;;
41099;SDS011;26844;53.686;-6.346;2022-11-15T13:43:51;14.85;;;13.48;;
41099;SDS011;26844;53.686;-6.346;2022-11-15T13:46:20;18.45;;;17.42;;
41099;SDS011;26844;53.686;-6.346;2022-11-15T13:48:46;16.20;;;15.18;;
41099;SDS011;26844;53.686;-6.346;2022-11-15T13:56:38;14.88;;;14.10;;
41099;SDS011;26844;53.686;-6.346;2022-11-15T13:59:49;13.23;;;12.63;;
41099;SDS011;26844;53.686;-6.346;2022-11-15T14:01:55;13.13;;;12.30;;
41099;SDS011;26844;53.686;-6.346;2022-11-15T14:04:22;14.85;;;14.10;;
41099;SDS011;26844;53.686;-6.346;2022-11-15T14:06:52;13.37;;;12.37;;
41099;SDS011;26844;53.686;-6.346;2022-11-15T14:11:59;15.07;;;14.32;;
41099;SDS011;26844;53.686;-6.346;2022-11-15T14:14:25;13.13;;;12.15;;
41099;SDS011;26844;53.686;-6.346;2022-11-15T14:16:52;13.67;;;12.50;;
41099;SDS011;26844;53.686;-6.346;2022-11-15T14:24:34;12.32;;;11.73;;
41099;SDS011;26844;53.686;-6.346;2022-11-15T14:29:43;13.30;;;12.30;;
41099;SDS011;26844;53.686;-6.346;2022-11-15T14:32:21;13.40;;;12.65;;
41099;SDS011;26844;53.686;-6.346;2022-11-15T14:34:48;12.27;;;11.48;;
41099;SDS011;26844;53.686;-6.346;2022-11-15T14:39:45;13.10;;;12.18;;
41099;SDS011;26844;53.686;-6.346;2022-11-15T14:42:10;13.02;;;12.32;;
41099;SDS011;26844;53.686;-6.346;2022-11-15T14:44:35;12.25;;;11.52;;
41099;SDS011;26844;53.686;-6.346;2022-11-15T14:47:00;12.45;;;11.77;;
41099;SDS011;26844;53.686;-6.346;2022-11-15T14:49:25;15.13;;;14.32;;
41099;SDS011;26844;53.686;-6.346;2022-11-15T14:51:51;14.60;;;13.70;;
41099;SDS011;26844;53.686;-6.346;2022-11-15T14:54:16;14.38;;;13.75;;
41099;SDS011;26844;53.686;-6.346;2022-11-15T14:56:41;15.27;;;14.40;;
41099;SDS011;26844;53.686;-6.346;2022-11-15T14:59:07;18.85;;;17.77;;
41099;SDS011;26844;53.686;-6.346;2022-11-15T15:01:32;22.85;;;21.73;;
41099;SDS011;26844;53.686;-6.346;2022-11-15T15:03:58;18.13;;;17.08;;
41099;SDS011;26844;53.686;-6.346;2022-11-15T15:06:23;28.73;;;27.40;;
41099;SDS011;26844;53.686;-6.346;2022-11-15T15:08:48;67.05;;;63.97;;
41099;SDS011;26844;53.686;-6.346;2022-11-15T15:11:28;46.13;;;44.08;;
41099;SDS011;26844;53.686;-6.346;2022-11-15T15:13:54;54.58;;;52.08;;
41099;SDS011;26844;53.686;-6.346;2022-11-15T15:16:22;56.05;;;53.45;;
41099;SDS011;26844;53.686;-6.346;2022-11-15T15:18:47;71.47;;;68.13;;
41099;SDS011;26844;53.686;-6.346;2022-11-15T15:21:23;53.13;;;50.78;;
41099;SDS011;26844;53.686;-6.346;2022-11-15T15:23:48;76.20;;;72.80;;
41099;SDS011;26844;53.686;-6.346;2022-11-15T15:26:14;68.88;;;65.63;;
41099;SDS011;26844;53.686;-6.346;2022-11-15T15:28:39;61.90;;;59.08;;
41099;SDS011;26844;53.686;-6.346;2022-11-15T15:31:05;70.97;;;67.80;;
41099;SDS011;26844;53.686;-6.346;2022-11-15T15:33:30;81.75;;;78.07;;
41099;SDS011;26844;53.686;-6.346;2022-11-15T15:35:55;59.47;;;56.72;;
41099;SDS011;26844;53.686;-6.346;2022-11-15T15:38:21;53.92;;;51.47;;
41099;SDS011;26844;53.686;-6.346;2022-11-15T15:40:46;54.45;;;52.08;;
41099;SDS011;26844;53.686;-6.346;2022-11-15T15:43:11;47.75;;;45.15;;
41099;SDS011;26844;53.686;-6.346;2022-11-15T15:45:37;40.22;;;38.28;;
41099;SDS011;26844;53.686;-6.346;2022-11-15T15:48:04;31.73;;;30.35;;
41099;SDS011;26844;53.686;-6.346;2022-11-15T15:50:32;35.65;;;33.70;;
41099;SDS011;26844;53.686;-6.346;2022-11-15T15:55:23;36.42;;;34.55;;
41099;SDS011;26844;53.686;-6.346;2022-11-15T15:57:48;27.35;;;26.17;;
41099;SDS011;26844;53.686;-6.346;2022-11-15T16:00:14;28.83;;;27.48;;
41099;SDS011;26844;53.686;-6.346;2022-11-15T16:02:40;39.97;;;38.17;;
41099;SDS011;26844;53.686;-6.346;2022-11-15T16:05:05;54.13;;;51.58;;
41099;SDS011;26844;53.686;-6.346;2022-11-15T16:07:31;55.95;;;53.30;;
41099;SDS011;26844;53.686;-6.346;2022-11-15T16:09:56;54.10;;;51.70;;
41099;SDS011;26844;53.686;-6.346;2022-11-15T16:12:24;39.90;;;37.97;;
41099;SDS011;26844;53.686;-6.346;2022-11-15T16:14:50;31.55;;;29.85;;
41099;SDS011;26844;53.686;-6.346;2022-11-15T16:17:18;20.48;;;19.33;;